sensor_id;sensor_type;location;lat;lon;timestamp;P1;durP1;ratioP1;P2;durP2;ratioP2
23402;SDS011;11874;48.228;11.684;2022-12-18T00:00:00;54.35;;;23.45;;
23402;SDS011;11874;48.228;11.684;2022-12-18T00:02:28;56.75;;;24.15;;
23402;SDS011;11874;48.228;11.684;2022-12-18T00:04:56;54.92;;;23.38;;
23402;SDS011;11874;48.228;11.684;2022-12-18T00:07:27;55.53;;;23.08;;
23402;SDS011;11874;48.228;11.684;2022-12-18T00:09:56;50.55;;;22.83;;
23402;SDS011;11874;48.228;11.684;2022-12-18T00:12:24;52.92;;;23.20;;
23402;SDS011;11874;48.228;11.684;2022-12-18T00:14:52;57.65;;;24.13;;
23402;SDS011;11874;48.228;11.684;2022-12-18T00:17:19;51.22;;;20.63;;
23402;SDS011;11874;48.228;11.684;2022-12-18T00:19:47;49.67;;;22.38;;
23402;SDS011;11874;48.228;11.684;2022-12-18T00:22:15;46.95;;;22.02;;
23402;SDS011;11874;48.228;11.684;2022-12-18T00:24:43;51.17;;;23.52;;
23402;SDS011;11874;48.228;11.684;2022-12-18T00:27:12;47.83;;;21.38;;
23402;SDS011;11874;48.228;11.684;2022-12-18T00:29:40;48.30;;;21.58;;
23402;SDS011;11874;48.228;11.684;2022-12-18T00:32:08;56.72;;;23.58;;
23402;SDS011;11874;48.228;11.684;2022-12-18T00:34:35;51.88;;;24.17;;
23402;SDS011;11874;48.228;11.684;2022-12-18T00:37:03;58.65;;;25.48;;
23402;SDS011;11874;48.228;11.684;2022-12-18T00:39:31;52.17;;;22.88;;
23402;SDS011;11874;48.228;11.684;2022-12-18T00:41:59;49.78;;;23.40;;
23402;SDS011;11874;48.228;11.684;2022-12-18T00:44:45;52.33;;;22.73;;
23402;SDS011;11874;48.228;11.684;2022-12-18T00:47:13;49.58;;;21.92;;
23402;SDS011;11874;48.228;11.684;2022-12-18T00:49:41;52.47;;;22.88;;
23402;SDS011;11874;48.228;11.684;2022-12-18T00:52:09;49.90;;;23.35;;
23402;SDS011;11874;48.228;11.684;2022-12-18T00:54:37;45.40;;;23.00;;
23402;SDS011;11874;48.228;11.684;2022-12-18T00:57:04;51.25;;;22.90;;
23402;SDS011;11874;48.228;11.684;2022-12-18T00:59:32;49.67;;;21.17;;
23402;SDS011;11874;48.228;11.684;2022-12-18T01:02:01;53.38;;;22.95;;
23402;SDS011;11874;48.228;11.684;2022-12-18T01:04:30;46.88;;;21.05;;
23402;SDS011;11874;48.228;11.684;2022-12-18T01:06:59;46.03;;;21.63;;
23402;SDS011;11874;48.228;11.684;2022-12-18T01:09:27;49.38;;;21.98;;
23402;SDS011;11874;48.228;11.684;2022-12-18T01:11:54;48.22;;;22.83;;
23402;SDS011;11874;48.228;11.684;2022-12-18T01:14:22;44.05;;;20.90;;
23402;SDS011;11874;48.228;11.684;2022-12-18T01:16:50;52.70;;;21.92;;
23402;SDS011;11874;48.228;11.684;2022-12-18T01:19:20;54.53;;;22.70;;
23402;SDS011;11874;48.228;11.684;2022-12-18T01:21:47;53.30;;;23.58;;
23402;SDS011;11874;48.228;11.684;2022-12-18T01:24:15;51.83;;;23.08;;
23402;SDS011;11874;48.228;11.684;2022-12-18T01:26:43;52.38;;;22.58;;
23402;SDS011;11874;48.228;11.684;2022-12-18T01:29:11;50.72;;;22.75;;
23402;SDS011;11874;48.228;11.684;2022-12-18T01:31:39;52.88;;;24.00;;
23402;SDS011;11874;48.228;11.684;2022-12-18T01:34:08;46.45;;;22.33;;
23402;SDS011;11874;48.228;11.684;2022-12-18T01:36:37;52.85;;;22.75;;
23402;SDS011;11874;48.228;11.684;2022-12-18T01:39:06;52.20;;;23.60;;
23402;SDS011;11874;48.228;11.684;2022-12-18T01:41:37;53.60;;;23.70;;
23402;SDS011;11874;48.228;11.684;2022-12-18T01:47:24;47.53;;;21.27;;
23402;SDS011;11874;48.228;11.684;2022-12-18T01:49:54;48.88;;;22.05;;
23402;SDS011;11874;48.228;11.684;2022-12-18T01:52:25;49.30;;;22.00;;
23402;SDS011;11874;48.228;11.684;2022-12-18T01:54:55;54.17;;;22.50;;
23402;SDS011;11874;48.228;11.684;2022-12-18T01:57:24;49.28;;;22.13;;
23402;SDS011;11874;48.228;11.684;2022-12-18T01:59:53;49.15;;;21.73;;
23402;SDS011;11874;48.228;11.684;2022-12-18T02:02:23;51.55;;;22.60;;
23402;SDS011;11874;48.228;11.684;2022-12-18T02:04:51;51.67;;;22.42;;
23402;SDS011;11874;48.228;11.684;2022-12-18T02:07:20;48.30;;;21.92;;
23402;SDS011;11874;48.228;11.684;2022-12-18T02:09:58;51.70;;;22.38;;
23402;SDS011;11874;48.228;11.684;2022-12-18T02:12:29;45.00;;;21.92;;
23402;SDS011;11874;48.228;11.684;2022-12-18T02:15:03;45.38;;;20.73;;
23402;SDS011;11874;48.228;11.684;2022-12-18T02:17:36;49.53;;;21.20;;
23402;SDS011;11874;48.228;11.684;2022-12-18T02:20:12;50.80;;;20.77;;
23402;SDS011;11874;48.228;11.684;2022-12-18T02:22:49;49.65;;;22.23;;
23402;SDS011;11874;48.228;11.684;2022-12-18T02:25:29;47.28;;;20.42;;
23402;SDS011;11874;48.228;11.684;2022-12-18T02:28:13;47.10;;;21.23;;
23402;SDS011;11874;48.228;11.684;2022-12-18T02:30:45;54.65;;;22.02;;
23402;SDS011;11874;48.228;11.684;2022-12-18T02:33:15;50.20;;;22.17;;
23402;SDS011;11874;48.228;11.684;2022-12-18T02:35:46;46.50;;;20.83;;
23402;SDS011;11874;48.228;11.684;2022-12-18T02:38:15;49.92;;;21.13;;
23402;SDS011;11874;48.228;11.684;2022-12-18T02:40:44;51.60;;;21.63;;
23402;SDS011;11874;48.228;11.684;2022-12-18T02:43:15;45.83;;;20.17;;
23402;SDS011;11874;48.228;11.684;2022-12-18T02:45:46;48.38;;;21.85;;
23402;SDS011;11874;48.228;11.684;2022-12-18T02:48:16;49.63;;;22.30;;
23402;SDS011;11874;48.228;11.684;2022-12-18T02:50:48;47.15;;;20.23;;
23402;SDS011;11874;48.228;11.684;2022-12-18T02:53:22;48.75;;;21.17;;
23402;SDS011;11874;48.228;11.684;2022-12-18T02:55:56;46.45;;;19.85;;
23402;SDS011;11874;48.228;11.684;2022-12-18T02:58:33;52.58;;;21.75;;
23402;SDS011;11874;48.228;11.684;2022-12-18T03:01:09;47.58;;;20.63;;
23402;SDS011;11874;48.228;11.684;2022-12-18T03:03:45;43.17;;;19.92;;
23402;SDS011;11874;48.228;11.684;2022-12-18T03:06:18;44.75;;;20.65;;
23402;SDS011;11874;48.228;11.684;2022-12-18T03:08:52;52.97;;;20.92;;
23402;SDS011;11874;48.228;11.684;2022-12-18T03:11:25;49.85;;;20.38;;
23402;SDS011;11874;48.228;11.684;2022-12-18T03:14:16;46.13;;;19.90;;
23402;SDS011;11874;48.228;11.684;2022-12-18T03:16:46;46.72;;;19.63;;
23402;SDS011;11874;48.228;11.684;2022-12-18T03:19:16;41.83;;;19.20;;
23402;SDS011;11874;48.228;11.684;2022-12-18T03:21:50;43.40;;;19.17;;
23402;SDS011;11874;48.228;11.684;2022-12-18T03:24:21;40.53;;;19.20;;
23402;SDS011;11874;48.228;11.684;2022-12-18T03:26:52;46.20;;;19.35;;
23402;SDS011;11874;48.228;11.684;2022-12-18T03:29:26;44.58;;;19.52;;
23402;SDS011;11874;48.228;11.684;2022-12-18T03:32:01;44.22;;;19.17;;
23402;SDS011;11874;48.228;11.684;2022-12-18T03:34:33;39.83;;;18.45;;
23402;SDS011;11874;48.228;11.684;2022-12-18T03:37:04;45.33;;;19.17;;
23402;SDS011;11874;48.228;11.684;2022-12-18T03:39:33;44.92;;;20.52;;
23402;SDS011;11874;48.228;11.684;2022-12-18T03:42:01;49.90;;;20.40;;
23402;SDS011;11874;48.228;11.684;2022-12-18T03:44:35;41.90;;;18.33;;
23402;SDS011;11874;48.228;11.684;2022-12-18T03:47:09;39.97;;;17.55;;
23402;SDS011;11874;48.228;11.684;2022-12-18T03:49:44;41.47;;;17.50;;
23402;SDS011;11874;48.228;11.684;2022-12-18T03:52:18;38.35;;;18.52;;
23402;SDS011;11874;48.228;11.684;2022-12-18T03:54:51;47.92;;;19.02;;
23402;SDS011;11874;48.228;11.684;2022-12-18T03:57:23;43.30;;;18.60;;
23402;SDS011;11874;48.228;11.684;2022-12-18T03:59:55;43.78;;;18.20;;
23402;SDS011;11874;48.228;11.684;2022-12-18T04:02:26;39.60;;;16.95;;
23402;SDS011;11874;48.228;11.684;2022-12-18T04:04:56;40.50;;;17.92;;
23402;SDS011;11874;48.228;11.684;2022-12-18T04:07:27;41.58;;;17.50;;
23402;SDS011;11874;48.228;11.684;2022-12-18T04:09:55;40.42;;;17.27;;
23402;SDS011;11874;48.228;11.684;2022-12-18T04:12:25;44.92;;;18.35;;
23402;SDS011;11874;48.228;11.684;2022-12-18T04:14:56;40.45;;;18.27;;
23402;SDS011;11874;48.228;11.684;2022-12-18T04:17:24;36.50;;;16.90;;
23402;SDS011;11874;48.228;11.684;2022-12-18T04:19:52;36.85;;;16.48;;
23402;SDS011;11874;48.228;11.684;2022-12-18T04:22:20;33.08;;;15.77;;
23402;SDS011;11874;48.228;11.684;2022-12-18T04:24:48;36.25;;;15.70;;
23402;SDS011;11874;48.228;11.684;2022-12-18T04:27:16;38.70;;;16.73;;
23402;SDS011;11874;48.228;11.684;2022-12-18T04:29:43;39.75;;;16.50;;
23402;SDS011;11874;48.228;11.684;2022-12-18T04:32:13;32.83;;;15.27;;
23402;SDS011;11874;48.228;11.684;2022-12-18T04:34:40;38.75;;;16.02;;
23402;SDS011;11874;48.228;11.684;2022-12-18T04:37:08;34.20;;;15.75;;
23402;SDS011;11874;48.228;11.684;2022-12-18T04:39:37;39.47;;;17.77;;
23402;SDS011;11874;48.228;11.684;2022-12-18T04:42:05;44.10;;;17.88;;
23402;SDS011;11874;48.228;11.684;2022-12-18T04:44:33;45.05;;;18.70;;
23402;SDS011;11874;48.228;11.684;2022-12-18T04:47:00;41.80;;;18.55;;
23402;SDS011;11874;48.228;11.684;2022-12-18T04:49:30;40.20;;;17.17;;
23402;SDS011;11874;48.228;11.684;2022-12-18T04:51:57;40.83;;;17.45;;
23402;SDS011;11874;48.228;11.684;2022-12-18T04:54:25;42.40;;;18.77;;
23402;SDS011;11874;48.228;11.684;2022-12-18T04:56:53;39.13;;;17.92;;
23402;SDS011;11874;48.228;11.684;2022-12-18T04:59:21;41.10;;;17.60;;
23402;SDS011;11874;48.228;11.684;2022-12-18T05:01:49;38.38;;;17.48;;
23402;SDS011;11874;48.228;11.684;2022-12-18T05:04:17;41.22;;;17.98;;
23402;SDS011;11874;48.228;11.684;2022-12-18T05:06:46;41.65;;;18.45;;
23402;SDS011;11874;48.228;11.684;2022-12-18T05:09:14;39.22;;;17.33;;
23402;SDS011;11874;48.228;11.684;2022-12-18T05:11:42;42.95;;;17.50;;
23402;SDS011;11874;48.228;11.684;2022-12-18T05:14:11;40.40;;;17.50;;
23402;SDS011;11874;48.228;11.684;2022-12-18T05:16:39;37.08;;;15.95;;
23402;SDS011;11874;48.228;11.684;2022-12-18T05:19:07;38.42;;;16.20;;
23402;SDS011;11874;48.228;11.684;2022-12-18T05:21:35;33.38;;;15.93;;
23402;SDS011;11874;48.228;11.684;2022-12-18T05:24:04;38.60;;;16.88;;
23402;SDS011;11874;48.228;11.684;2022-12-18T05:26:32;41.40;;;17.83;;
23402;SDS011;11874;48.228;11.684;2022-12-18T05:29:00;41.03;;;17.05;;
23402;SDS011;11874;48.228;11.684;2022-12-18T05:31:28;39.10;;;18.05;;
23402;SDS011;11874;48.228;11.684;2022-12-18T05:34:04;37.38;;;15.63;;
23402;SDS011;11874;48.228;11.684;2022-12-18T05:36:32;39.63;;;16.55;;
23402;SDS011;11874;48.228;11.684;2022-12-18T05:38:59;38.20;;;16.65;;
23402;SDS011;11874;48.228;11.684;2022-12-18T05:41:29;37.83;;;17.27;;
23402;SDS011;11874;48.228;11.684;2022-12-18T05:43:56;42.00;;;18.05;;
23402;SDS011;11874;48.228;11.684;2022-12-18T05:46:25;46.58;;;18.15;;
23402;SDS011;11874;48.228;11.684;2022-12-18T05:48:53;37.50;;;17.20;;
23402;SDS011;11874;48.228;11.684;2022-12-18T05:51:22;42.90;;;18.13;;
23402;SDS011;11874;48.228;11.684;2022-12-18T05:53:50;43.33;;;18.38;;
23402;SDS011;11874;48.228;11.684;2022-12-18T05:56:18;42.85;;;18.67;;
23402;SDS011;11874;48.228;11.684;2022-12-18T05:58:50;38.30;;;17.65;;
23402;SDS011;11874;48.228;11.684;2022-12-18T06:01:20;39.03;;;17.45;;
23402;SDS011;11874;48.228;11.684;2022-12-18T06:03:49;43.92;;;17.33;;
23402;SDS011;11874;48.228;11.684;2022-12-18T06:06:18;39.97;;;17.27;;
23402;SDS011;11874;48.228;11.684;2022-12-18T06:08:48;41.75;;;18.08;;
23402;SDS011;11874;48.228;11.684;2022-12-18T06:11:17;46.90;;;19.48;;
23402;SDS011;11874;48.228;11.684;2022-12-18T06:13:46;37.25;;;16.95;;
23402;SDS011;11874;48.228;11.684;2022-12-18T06:16:24;37.30;;;16.63;;
23402;SDS011;11874;48.228;11.684;2022-12-18T06:18:52;41.85;;;18.27;;
23402;SDS011;11874;48.228;11.684;2022-12-18T06:21:19;41.72;;;18.38;;
23402;SDS011;11874;48.228;11.684;2022-12-18T06:23:47;41.33;;;17.60;;
23402;SDS011;11874;48.228;11.684;2022-12-18T06:26:15;39.22;;;17.75;;
23402;SDS011;11874;48.228;11.684;2022-12-18T06:28:48;43.47;;;17.85;;
23402;SDS011;11874;48.228;11.684;2022-12-18T06:31:17;40.72;;;17.83;;
23402;SDS011;11874;48.228;11.684;2022-12-18T06:33:45;35.72;;;16.67;;
23402;SDS011;11874;48.228;11.684;2022-12-18T06:36:13;38.10;;;15.85;;
23402;SDS011;11874;48.228;11.684;2022-12-18T06:38:42;36.65;;;16.55;;
23402;SDS011;11874;48.228;11.684;2022-12-18T06:41:12;37.88;;;17.55;;
23402;SDS011;11874;48.228;11.684;2022-12-18T06:43:41;35.67;;;15.73;;
23402;SDS011;11874;48.228;11.684;2022-12-18T06:46:10;35.17;;;15.57;;
23402;SDS011;11874;48.228;11.684;2022-12-18T06:48:39;34.53;;;15.60;;
23402;SDS011;11874;48.228;11.684;2022-12-18T06:51:07;41.28;;;17.48;;
23402;SDS011;11874;48.228;11.684;2022-12-18T06:53:35;34.83;;;15.73;;
23402;SDS011;11874;48.228;11.684;2022-12-18T06:56:04;34.55;;;15.55;;
23402;SDS011;11874;48.228;11.684;2022-12-18T06:58:36;34.20;;;16.25;;
23402;SDS011;11874;48.228;11.684;2022-12-18T07:01:05;36.33;;;16.38;;
23402;SDS011;11874;48.228;11.684;2022-12-18T07:03:34;37.33;;;16.05;;
23402;SDS011;11874;48.228;11.684;2022-12-18T07:06:04;34.92;;;15.60;;
23402;SDS011;11874;48.228;11.684;2022-12-18T07:08:32;33.70;;;15.70;;
23402;SDS011;11874;48.228;11.684;2022-12-18T07:11:02;37.95;;;17.15;;
23402;SDS011;11874;48.228;11.684;2022-12-18T07:13:31;32.13;;;14.52;;
23402;SDS011;11874;48.228;11.684;2022-12-18T07:16:06;32.85;;;13.98;;
23402;SDS011;11874;48.228;11.684;2022-12-18T07:18:46;37.97;;;16.05;;
23402;SDS011;11874;48.228;11.684;2022-12-18T07:21:16;34.58;;;15.27;;
23402;SDS011;11874;48.228;11.684;2022-12-18T07:23:45;37.22;;;15.75;;
23402;SDS011;11874;48.228;11.684;2022-12-18T07:26:15;36.83;;;15.55;;
23402;SDS011;11874;48.228;11.684;2022-12-18T07:28:44;37.78;;;16.30;;
23402;SDS011;11874;48.228;11.684;2022-12-18T07:31:12;33.50;;;16.52;;
23402;SDS011;11874;48.228;11.684;2022-12-18T07:33:42;30.50;;;14.60;;
23402;SDS011;11874;48.228;11.684;2022-12-18T07:36:11;34.08;;;15.73;;
23402;SDS011;11874;48.228;11.684;2022-12-18T07:38:40;37.65;;;15.48;;
23402;SDS011;11874;48.228;11.684;2022-12-18T07:41:10;32.33;;;14.05;;
23402;SDS011;11874;48.228;11.684;2022-12-18T07:43:39;34.05;;;14.63;;
23402;SDS011;11874;48.228;11.684;2022-12-18T07:46:09;33.15;;;14.27;;
23402;SDS011;11874;48.228;11.684;2022-12-18T07:48:39;32.88;;;14.48;;
23402;SDS011;11874;48.228;11.684;2022-12-18T07:51:11;33.90;;;14.93;;
23402;SDS011;11874;48.228;11.684;2022-12-18T07:53:41;33.53;;;14.43;;
23402;SDS011;11874;48.228;11.684;2022-12-18T07:56:10;27.45;;;13.25;;
23402;SDS011;11874;48.228;11.684;2022-12-18T07:58:56;31.25;;;14.38;;
23402;SDS011;11874;48.228;11.684;2022-12-18T08:01:25;35.05;;;15.75;;
23402;SDS011;11874;48.228;11.684;2022-12-18T08:03:53;35.45;;;15.27;;
23402;SDS011;11874;48.228;11.684;2022-12-18T08:06:21;34.08;;;14.80;;
23402;SDS011;11874;48.228;11.684;2022-12-18T08:08:51;31.38;;;14.20;;
23402;SDS011;11874;48.228;11.684;2022-12-18T08:11:20;36.58;;;14.32;;
23402;SDS011;11874;48.228;11.684;2022-12-18T08:13:49;32.42;;;14.70;;
23402;SDS011;11874;48.228;11.684;2022-12-18T08:16:16;33.15;;;14.02;;
23402;SDS011;11874;48.228;11.684;2022-12-18T08:18:45;30.38;;;13.85;;
23402;SDS011;11874;48.228;11.684;2022-12-18T08:21:15;32.80;;;13.88;;
23402;SDS011;11874;48.228;11.684;2022-12-18T08:23:46;32.47;;;14.52;;
23402;SDS011;11874;48.228;11.684;2022-12-18T08:26:17;36.38;;;14.57;;
23402;SDS011;11874;48.228;11.684;2022-12-18T08:28:47;26.95;;;12.75;;
23402;SDS011;11874;48.228;11.684;2022-12-18T08:31:16;28.90;;;13.30;;
23402;SDS011;11874;48.228;11.684;2022-12-18T08:33:44;31.75;;;13.90;;
23402;SDS011;11874;48.228;11.684;2022-12-18T08:36:15;32.85;;;14.45;;
23402;SDS011;11874;48.228;11.684;2022-12-18T08:38:43;29.35;;;13.05;;
23402;SDS011;11874;48.228;11.684;2022-12-18T08:41:12;33.97;;;14.32;;
23402;SDS011;11874;48.228;11.684;2022-12-18T08:43:42;29.75;;;12.98;;
23402;SDS011;11874;48.228;11.684;2022-12-18T08:46:31;28.95;;;13.77;;
23402;SDS011;11874;48.228;11.684;2022-12-18T08:49:01;29.92;;;12.93;;
23402;SDS011;11874;48.228;11.684;2022-12-18T08:51:30;26.80;;;12.25;;
23402;SDS011;11874;48.228;11.684;2022-12-18T08:53:57;32.67;;;13.13;;
23402;SDS011;11874;48.228;11.684;2022-12-18T08:56:25;31.10;;;14.35;;
23402;SDS011;11874;48.228;11.684;2022-12-18T08:58:55;28.00;;;13.38;;
23402;SDS011;11874;48.228;11.684;2022-12-18T09:01:23;25.15;;;11.95;;
23402;SDS011;11874;48.228;11.684;2022-12-18T09:03:51;30.10;;;12.93;;
23402;SDS011;11874;48.228;11.684;2022-12-18T09:06:20;23.50;;;11.55;;
23402;SDS011;11874;48.228;11.684;2022-12-18T09:08:49;26.00;;;11.82;;
23402;SDS011;11874;48.228;11.684;2022-12-18T09:11:19;28.83;;;12.23;;
23402;SDS011;11874;48.228;11.684;2022-12-18T09:13:49;25.75;;;12.07;;
23402;SDS011;11874;48.228;11.684;2022-12-18T09:16:19;25.30;;;11.45;;
23402;SDS011;11874;48.228;11.684;2022-12-18T09:18:54;26.67;;;11.68;;
23402;SDS011;11874;48.228;11.684;2022-12-18T09:21:26;26.85;;;11.95;;
23402;SDS011;11874;48.228;11.684;2022-12-18T09:23:56;26.85;;;12.10;;
23402;SDS011;11874;48.228;11.684;2022-12-18T09:26:24;27.17;;;12.80;;
23402;SDS011;11874;48.228;11.684;2022-12-18T09:28:53;28.88;;;12.63;;
23402;SDS011;11874;48.228;11.684;2022-12-18T09:31:23;24.95;;;11.30;;
23402;SDS011;11874;48.228;11.684;2022-12-18T09:33:51;31.10;;;13.38;;
23402;SDS011;11874;48.228;11.684;2022-12-18T09:36:21;29.35;;;14.50;;
23402;SDS011;11874;48.228;11.684;2022-12-18T09:38:49;32.55;;;15.10;;
23402;SDS011;11874;48.228;11.684;2022-12-18T09:41:21;35.42;;;16.55;;
23402;SDS011;11874;48.228;11.684;2022-12-18T09:44:10;31.65;;;13.98;;
23402;SDS011;11874;48.228;11.684;2022-12-18T09:46:50;32.47;;;14.18;;
23402;SDS011;11874;48.228;11.684;2022-12-18T09:49:22;28.88;;;13.23;;
23402;SDS011;11874;48.228;11.684;2022-12-18T09:51:54;32.90;;;14.80;;
23402;SDS011;11874;48.228;11.684;2022-12-18T09:54:31;28.75;;;12.60;;
23402;SDS011;11874;48.228;11.684;2022-12-18T09:57:03;30.25;;;14.43;;
23402;SDS011;11874;48.228;11.684;2022-12-18T09:59:32;30.92;;;13.70;;
23402;SDS011;11874;48.228;11.684;2022-12-18T10:02:13;29.58;;;13.68;;
23402;SDS011;11874;48.228;11.684;2022-12-18T10:04:42;28.20;;;13.00;;
23402;SDS011;11874;48.228;11.684;2022-12-18T10:07:13;25.58;;;12.88;;
23402;SDS011;11874;48.228;11.684;2022-12-18T10:09:49;28.45;;;13.02;;
23402;SDS011;11874;48.228;11.684;2022-12-18T10:12:25;26.38;;;12.77;;
23402;SDS011;11874;48.228;11.684;2022-12-18T10:15:04;32.00;;;13.80;;
23402;SDS011;11874;48.228;11.684;2022-12-18T10:17:38;28.00;;;12.48;;
23402;SDS011;11874;48.228;11.684;2022-12-18T10:20:13;30.08;;;13.73;;
23402;SDS011;11874;48.228;11.684;2022-12-18T10:22:50;24.98;;;12.32;;
23402;SDS011;11874;48.228;11.684;2022-12-18T10:25:25;26.23;;;12.63;;
23402;SDS011;11874;48.228;11.684;2022-12-18T10:27:58;31.67;;;13.50;;
23402;SDS011;11874;48.228;11.684;2022-12-18T10:30:34;26.38;;;12.07;;
23402;SDS011;11874;48.228;11.684;2022-12-18T10:33:03;28.85;;;12.95;;
23402;SDS011;11874;48.228;11.684;2022-12-18T10:35:31;32.42;;;12.88;;
23402;SDS011;11874;48.228;11.684;2022-12-18T10:38:00;28.95;;;12.18;;
23402;SDS011;11874;48.228;11.684;2022-12-18T10:40:31;25.85;;;12.57;;
23402;SDS011;11874;48.228;11.684;2022-12-18T10:43:04;20.92;;;9.57;;
23402;SDS011;11874;48.228;11.684;2022-12-18T10:45:33;27.88;;;11.90;;
23402;SDS011;11874;48.228;11.684;2022-12-18T10:48:01;24.88;;;11.82;;
23402;SDS011;11874;48.228;11.684;2022-12-18T10:50:34;29.50;;;13.40;;
23402;SDS011;11874;48.228;11.684;2022-12-18T10:53:25;28.02;;;13.00;;
23402;SDS011;11874;48.228;11.684;2022-12-18T10:55:54;30.17;;;12.63;;
23402;SDS011;11874;48.228;11.684;2022-12-18T10:58:32;27.95;;;12.40;;
23402;SDS011;11874;48.228;11.684;2022-12-18T11:01:03;28.27;;;12.20;;
23402;SDS011;11874;48.228;11.684;2022-12-18T11:03:35;23.20;;;11.23;;
23402;SDS011;11874;48.228;11.684;2022-12-18T11:06:07;24.80;;;11.55;;
23402;SDS011;11874;48.228;11.684;2022-12-18T11:11:07;25.23;;;11.32;;
23402;SDS011;11874;48.228;11.684;2022-12-18T11:13:47;26.05;;;12.02;;
23402;SDS011;11874;48.228;11.684;2022-12-18T11:16:26;24.73;;;12.43;;
23402;SDS011;11874;48.228;11.684;2022-12-18T11:19:07;27.67;;;11.85;;
23402;SDS011;11874;48.228;11.684;2022-12-18T11:21:40;28.60;;;12.77;;
23402;SDS011;11874;48.228;11.684;2022-12-18T11:24:15;26.20;;;12.80;;
23402;SDS011;11874;48.228;11.684;2022-12-18T11:26:47;28.67;;;12.68;;
23402;SDS011;11874;48.228;11.684;2022-12-18T11:29:26;22.48;;;11.57;;
23402;SDS011;11874;48.228;11.684;2022-12-18T11:32:13;26.70;;;12.52;;
23402;SDS011;11874;48.228;11.684;2022-12-18T11:35:03;28.95;;;12.75;;
23402;SDS011;11874;48.228;11.684;2022-12-18T11:37:43;26.13;;;12.18;;
23402;SDS011;11874;48.228;11.684;2022-12-18T11:40:16;25.25;;;11.75;;
23402;SDS011;11874;48.228;11.684;2022-12-18T11:42:48;27.67;;;12.00;;
23402;SDS011;11874;48.228;11.684;2022-12-18T11:45:24;27.10;;;12.90;;
23402;SDS011;11874;48.228;11.684;2022-12-18T11:47:56;26.98;;;12.88;;
23402;SDS011;11874;48.228;11.684;2022-12-18T11:50:29;24.92;;;12.20;;
23402;SDS011;11874;48.228;11.684;2022-12-18T11:53:02;27.13;;;12.73;;
23402;SDS011;11874;48.228;11.684;2022-12-18T11:55:35;29.15;;;13.43;;
23402;SDS011;11874;48.228;11.684;2022-12-18T11:58:10;30.52;;;13.57;;
23402;SDS011;11874;48.228;11.684;2022-12-18T12:00:46;33.75;;;12.68;;
23402;SDS011;11874;48.228;11.684;2022-12-18T12:03:26;26.65;;;13.10;;
23402;SDS011;11874;48.228;11.684;2022-12-18T12:06:08;27.05;;;12.18;;
23402;SDS011;11874;48.228;11.684;2022-12-18T12:08:48;27.52;;;12.90;;
23402;SDS011;11874;48.228;11.684;2022-12-18T12:11:29;27.30;;;12.45;;
23402;SDS011;11874;48.228;11.684;2022-12-18T12:14:09;35.78;;;14.40;;
23402;SDS011;11874;48.228;11.684;2022-12-18T12:16:54;52.92;;;20.80;;
23402;SDS011;11874;48.228;11.684;2022-12-18T12:19:34;32.40;;;14.80;;
23402;SDS011;11874;48.228;11.684;2022-12-18T12:22:10;28.48;;;13.35;;
23402;SDS011;11874;48.228;11.684;2022-12-18T12:24:51;30.35;;;11.95;;
23402;SDS011;11874;48.228;11.684;2022-12-18T12:27:31;27.45;;;12.48;;
23402;SDS011;11874;48.228;11.684;2022-12-18T12:30:07;25.83;;;12.15;;
23402;SDS011;11874;48.228;11.684;2022-12-18T12:32:41;26.85;;;12.63;;
23402;SDS011;11874;48.228;11.684;2022-12-18T12:35:25;25.65;;;12.20;;
23402;SDS011;11874;48.228;11.684;2022-12-18T12:38:05;25.92;;;12.35;;
23402;SDS011;11874;48.228;11.684;2022-12-18T12:40:38;27.15;;;12.10;;
23402;SDS011;11874;48.228;11.684;2022-12-18T12:43:25;27.25;;;12.85;;
23402;SDS011;11874;48.228;11.684;2022-12-18T12:45:58;28.13;;;12.85;;
23402;SDS011;11874;48.228;11.684;2022-12-18T12:48:37;25.05;;;12.38;;
23402;SDS011;11874;48.228;11.684;2022-12-18T12:51:15;23.23;;;11.65;;
23402;SDS011;11874;48.228;11.684;2022-12-18T12:53:45;30.17;;;13.68;;
23402;SDS011;11874;48.228;11.684;2022-12-18T12:56:15;25.95;;;12.50;;
23402;SDS011;11874;48.228;11.684;2022-12-18T12:58:48;26.05;;;12.57;;
23402;SDS011;11874;48.228;11.684;2022-12-18T13:01:25;26.02;;;12.63;;
23402;SDS011;11874;48.228;11.684;2022-12-18T13:04:02;29.58;;;12.55;;
23402;SDS011;11874;48.228;11.684;2022-12-18T13:06:37;25.05;;;11.65;;
23402;SDS011;11874;48.228;11.684;2022-12-18T13:09:11;25.45;;;12.55;;
23402;SDS011;11874;48.228;11.684;2022-12-18T13:11:41;26.45;;;12.73;;
23402;SDS011;11874;48.228;11.684;2022-12-18T13:14:29;27.40;;;13.20;;
23402;SDS011;11874;48.228;11.684;2022-12-18T13:17:14;28.33;;;14.02;;
23402;SDS011;11874;48.228;11.684;2022-12-18T13:20:06;30.80;;;14.35;;
23402;SDS011;11874;48.228;11.684;2022-12-18T13:22:43;24.45;;;12.80;;
23402;SDS011;11874;48.228;11.684;2022-12-18T13:25:34;26.73;;;12.07;;
23402;SDS011;11874;48.228;11.684;2022-12-18T13:28:09;26.73;;;12.85;;
23402;SDS011;11874;48.228;11.684;2022-12-18T13:30:46;26.67;;;12.75;;
23402;SDS011;11874;48.228;11.684;2022-12-18T13:36:34;26.85;;;13.30;;
23402;SDS011;11874;48.228;11.684;2022-12-18T13:39:09;30.98;;;14.95;;
23402;SDS011;11874;48.228;11.684;2022-12-18T13:45:40;29.08;;;13.75;;
23402;SDS011;11874;48.228;11.684;2022-12-18T13:48:16;32.85;;;13.90;;
23402;SDS011;11874;48.228;11.684;2022-12-18T13:50:51;32.75;;;14.65;;
23402;SDS011;11874;48.228;11.684;2022-12-18T13:53:23;32.17;;;14.90;;
23402;SDS011;11874;48.228;11.684;2022-12-18T13:55:54;33.15;;;14.77;;
23402;SDS011;11874;48.228;11.684;2022-12-18T13:58:22;31.95;;;15.27;;
23402;SDS011;11874;48.228;11.684;2022-12-18T14:00:51;31.90;;;15.23;;
23402;SDS011;11874;48.228;11.684;2022-12-18T14:03:20;29.30;;;14.05;;
23402;SDS011;11874;48.228;11.684;2022-12-18T14:05:53;33.42;;;15.30;;
23402;SDS011;11874;48.228;11.684;2022-12-18T14:08:23;34.00;;;15.13;;
23402;SDS011;11874;48.228;11.684;2022-12-18T14:10:54;36.22;;;15.70;;
23402;SDS011;11874;48.228;11.684;2022-12-18T14:13:24;34.47;;;14.68;;
23402;SDS011;11874;48.228;11.684;2022-12-18T14:15:59;31.75;;;15.13;;
23402;SDS011;11874;48.228;11.684;2022-12-18T14:18:36;34.85;;;15.85;;
23402;SDS011;11874;48.228;11.684;2022-12-18T14:21:17;29.00;;;14.80;;
23402;SDS011;11874;48.228;11.684;2022-12-18T14:23:47;33.90;;;14.80;;
23402;SDS011;11874;48.228;11.684;2022-12-18T14:26:22;30.52;;;14.25;;
23402;SDS011;11874;48.228;11.684;2022-12-18T14:28:56;31.80;;;15.15;;
23402;SDS011;11874;48.228;11.684;2022-12-18T14:31:26;31.45;;;15.30;;
23402;SDS011;11874;48.228;11.684;2022-12-18T14:33:55;33.08;;;15.40;;
23402;SDS011;11874;48.228;11.684;2022-12-18T14:36:24;32.85;;;15.50;;
23402;SDS011;11874;48.228;11.684;2022-12-18T14:38:53;28.80;;;14.43;;
23402;SDS011;11874;48.228;11.684;2022-12-18T14:41:22;32.10;;;15.60;;
23402;SDS011;11874;48.228;11.684;2022-12-18T14:43:52;29.58;;;14.38;;
23402;SDS011;11874;48.228;11.684;2022-12-18T14:46:36;32.83;;;15.48;;